Time;durP1;ratioP1;P1;durP2;ratioP2;P2;SDS_P1;SDS_P2;PMS_P1;PMS_P2;Temp;Humidity;BMP_temperature;BMP_pressure;BME280_temperature;BME280_humidity;BME280_pressure;Samples;Min_cycle;Max_cycle;Signal;HPM_P1;HPM_P2
2021/11/18 00:00:46;;;;;;;22.35;8.75;;;;;;;3.12;100.00;95611.25;5102402;27;20681;-66
2021/11/18 00:03:14;;;;;;;17.52;8.65;;;;;;;3.16;100.00;95615.09;5102648;27;20059;-66
2021/11/18 00:05:41;;;;;;;18.98;9.45;;;;;;;3.23;100.00;95613.44;5102328;27;20051;-66
2021/11/18 00:08:08;;;;;;;25.10;10.00;;;;;;;3.25;100.00;95610.72;5100349;27;20098;-66
2021/11/18 00:10:56;;;;;;;25.38;10.13;;;;;;;3.25;100.00;95619.22;5100583;28;20036;-66
2021/11/18 00:13:28;;;;;;;23.85;10.85;;;;;;;3.34;100.00;95611.50;5105151;27;20039;-66
2021/11/18 00:15:56;;;;;;;25.55;13.00;;;;;;;3.35;100.00;95620.81;5101562;28;20043;-66
2021/11/18 00:18:29;;;;;;;33.92;12.27;;;;;;;3.31;100.00;95615.19;5100217;27;20040;-67
2021/11/18 00:21:26;;;;;;;23.08;9.73;;;;;;;3.37;100.00;95616.31;5100012;28;20044;-66
2021/11/18 00:23:56;;;;;;;19.25;9.32;;;;;;;3.29;100.00;95600.88;5098636;28;20753;-67
2021/11/18 00:26:25;;;;;;;23.42;11.15;;;;;;;3.29;100.00;95600.88;5099836;27;20497;-66
2021/11/18 00:28:53;;;;;;;23.30;8.98;;;;;;;3.21;100.00;95610.25;5082063;28;20048;-66
2021/11/18 00:31:23;;;;;;;21.50;10.15;;;;;;;2.96;100.00;95611.28;5097408;27;20035;-66
2021/11/18 00:33:51;;;;;;;19.88;10.35;;;;;;;2.84;100.00;95614.16;5099799;28;20046;-66
2021/11/18 00:36:19;;;;;;;23.73;10.25;;;;;;;2.94;100.00;95608.06;5101776;27;20043;-67
2021/11/18 00:38:46;;;;;;;23.05;9.68;;;;;;;2.64;100.00;95592.34;5102439;27;20035;-66
2021/11/18 00:41:14;;;;;;;26.02;9.93;;;;;;;2.57;100.00;95586.25;5100749;27;20438;-66
2021/11/18 00:43:42;;;;;;;25.73;13.20;;;;;;;2.33;100.00;95595.56;5102224;27;20053;-66
2021/11/18 00:46:09;;;;;;;30.38;12.88;;;;;;;2.20;100.00;95595.25;5098434;28;20573;-66
2021/11/18 00:48:37;;;;;;;27.10;12.43;;;;;;;2.35;100.00;95601.34;5100634;27;20064;-66
2021/11/18 00:51:07;;;;;;;60.60;24.42;;;;;;;2.42;100.00;95607.47;5100031;28;20040;-66
2021/11/18 00:53:37;;;;;;;41.72;17.75;;;;;;;2.59;100.00;95610.03;5102118;27;20062;-67
2021/11/18 00:56:05;;;;;;;33.63;14.00;;;;;;;2.66;100.00;95610.97;5114588;27;20048;-66
2021/11/18 00:58:31;;;;;;;38.78;14.02;;;;;;;2.78;100.00;95609.69;5101828;27;20047;-66
2021/11/18 01:00:58;;;;;;;37.00;16.25;;;;;;;2.89;100.00;95610.31;5100212;27;20535;-66
2021/11/18 01:03:28;;;;;;;38.92;17.13;;;;;;;2.97;100.00;95612.88;5083835;27;20500;-67
2021/11/18 01:05:56;;;;;;;41.03;15.88;;;;;;;2.84;100.00;95601.31;5086563;27;20046;-66
2021/11/18 01:08:23;;;;;;;37.10;14.05;;;;;;;2.84;100.00;95608.22;5086155;27;20553;-66
2021/11/18 01:10:57;;;;;;;35.75;16.02;;;;;;;2.95;100.00;95609.66;5080414;28;20040;-66
2021/11/18 01:13:27;;;;;;;24.15;12.45;;;;;;;3.02;100.00;95613.19;5080812;28;20049;-66
2021/11/18 01:15:54;;;;;;;34.15;13.18;;;;;;;3.08;100.00;95615.13;5106966;27;20801;-66
2021/11/18 01:18:22;;;;;;;27.90;12.93;;;;;;;2.96;100.00;95616.44;5084820;27;20048;-66
2021/11/18 01:20:54;;;;;;;30.05;12.75;;;;;;;2.78;100.00;95604.53;5069000;28;20501;-66
2021/11/18 01:23:25;;;;;;;23.02;10.82;;;;;;;2.32;100.00;95604.25;5084536;28;20051;-67
2021/11/18 01:25:52;;;;;;;20.15;10.57;;;;;;;2.27;100.00;95602.16;5086768;28;20053;-67
2021/11/18 01:28:24;;;;;;;30.15;12.45;;;;;;;2.05;100.00;95607.91;5089269;28;20680;-67
2021/11/18 01:30:51;;;;;;;27.70;12.60;;;;;;;1.76;100.00;95603.22;5100394;28;20721;-67
2021/11/18 01:33:22;;;;;;;23.42;10.68;;;;;;;1.72;100.00;95603.50;5083400;28;20047;-67
2021/11/18 01:35:50;;;;;;;23.55;10.52;;;;;;;1.94;100.00;95606.44;5083314;28;20085;-66
2021/11/18 01:38:19;;;;;;;24.70;10.98;;;;;;;2.09;100.00;95604.88;5091534;28;20052;-66
2021/11/18 01:40:51;;;;;;;28.35;12.60;;;;;;;2.15;100.00;95595.72;5089243;28;20151;-67
2021/11/18 01:43:31;;;;;;;28.80;11.45;;;;;;;2.27;100.00;95598.81;5091395;28;20051;-66
2021/11/18 01:45:58;;;;;;;30.98;11.70;;;;;;;2.35;100.00;95603.94;5087523;28;20067;-66
2021/11/18 01:48:25;;;;;;;30.15;12.73;;;;;;;2.37;100.00;95591.72;5083645;28;20046;-66
2021/11/18 01:50:54;;;;;;;36.33;13.00;;;;;;;2.42;100.00;95604.91;5084134;28;20044;-66
2021/11/18 01:53:50;;;;;;;27.27;11.55;;;;;;;2.45;100.00;95599.44;5085708;28;20039;-66
2021/11/18 01:56:25;;;;;;;25.85;11.68;;;;;;;2.43;100.00;95593.66;5073962;28;20054;-66
2021/11/18 01:58:59;;;;;;;29.63;13.30;;;;;;;2.41;100.00;95598.16;5101659;28;20048;-66
2021/11/18 02:01:45;;;;;;;31.90;12.68;;;;;;;2.41;100.00;95605.88;5085153;28;20043;-66
2021/11/18 02:04:27;;;;;;;25.58;11.50;;;;;;;2.36;100.00;95602.97;5088040;28;20047;-66
2021/11/18 02:07:08;;;;;;;23.05;11.10;;;;;;;2.35;100.00;95598.78;5094435;28;20044;-66
2021/11/18 02:09:43;;;;;;;29.40;11.15;;;;;;;2.30;100.00;95601.03;5103146;27;20032;-66
2021/11/18 02:12:16;;;;;;;30.45;12.55;;;;;;;2.28;100.00;95597.81;5093017;27;20039;-67
2021/11/18 02:14:43;;;;;;;32.17;14.70;;;;;;;2.29;100.00;95597.66;5093430;27;20047;-66
2021/11/18 02:17:14;;;;;;;39.85;14.27;;;;;;;2.23;100.00;95600.88;5089345;28;20130;-66
2021/11/18 02:19:48;;;;;;;34.45;13.77;;;;;;;2.18;100.00;95602.31;5090669;28;20047;-67
2021/11/18 02:22:17;;;;;;;38.60;14.60;;;;;;;2.13;100.00;95602.00;5092254;27;20050;-66
2021/11/18 02:24:54;;;;;;;36.75;13.63;;;;;;;2.12;100.00;95602.94;5092753;27;20071;-66
2021/11/18 02:27:24;;;;;;;35.33;13.70;;;;;;;2.10;100.00;95597.97;5088559;27;20542;-66
2021/11/18 02:29:54;;;;;;;30.23;13.98;;;;;;;2.05;100.00;95598.47;5091983;28;20100;-67
2021/11/18 02:32:33;;;;;;;29.45;10.85;;;;;;;1.99;100.00;95593.94;5068930;28;20039;-66
2021/11/18 02:35:03;;;;;;;28.00;12.88;;;;;;;1.96;100.00;95601.94;5087356;28;20039;-66
2021/11/18 02:37:30;;;;;;;28.30;11.77;;;;;;;1.92;100.00;95608.38;5089640;28;20047;-66
2021/11/18 02:39:57;;;;;;;27.23;11.63;;;;;;;1.87;100.00;95615.75;5108750;27;20480;-66
2021/11/18 02:42:25;;;;;;;30.27;12.77;;;;;;;1.71;100.00;95607.06;5086720;28;20043;-67
2021/11/18 02:44:53;;;;;;;34.28;14.02;;;;;;;1.73;100.00;95614.59;5093417;27;20067;-66
2021/11/18 02:47:20;;;;;;;32.67;13.43;;;;;;;1.59;100.00;95598.03;5086497;28;20055;-67
2021/11/18 02:49:51;;;;;;;29.67;13.70;;;;;;;1.69;100.00;95614.13;5092431;28;20048;-66
2021/11/18 02:52:25;;;;;;;34.55;11.98;;;;;;;1.65;100.00;95617.94;5091344;28;20497;-66
2021/11/18 02:54:52;;;;;;;29.45;12.32;;;;;;;1.61;100.00;95619.22;5088439;28;20047;-66
2021/11/18 02:57:18;;;;;;;21.58;10.57;;;;;;;1.59;100.00;95630.63;5089095;28;20062;-66
2021/11/18 02:59:46;;;;;;;27.20;10.75;;;;;;;1.54;100.00;95625.94;5093925;27;20861;-66
2021/11/18 03:02:13;;;;;;;26.75;11.82;;;;;;;1.49;100.00;95628.16;5109199;27;20389;-66
2021/11/18 03:04:41;;;;;;;24.25;11.15;;;;;;;1.45;100.00;95632.00;5096898;28;20138;-66
2021/11/18 03:07:08;;;;;;;23.20;11.38;;;;;;;1.42;100.00;95637.44;5092177;28;20044;-67
2021/11/18 03:09:36;;;;;;;25.98;12.10;;;;;;;1.33;100.00;95629.72;5090093;28;20047;-66
2021/11/18 03:12:03;;;;;;;28.60;12.65;;;;;;;1.37;100.00;95639.66;5092292;27;20042;-66
2021/11/18 03:14:31;;;;;;;34.10;12.38;;;;;;;1.34;100.00;95641.56;5098571;28;20047;-66
2021/11/18 03:16:58;;;;;;;27.75;12.10;;;;;;;1.27;100.00;95635.44;5075192;27;20072;-66
2021/11/18 03:19:38;;;;;;;25.77;11.57;;;;;;;1.28;100.00;95634.50;5098881;27;20058;-66
2021/11/18 03:22:07;;;;;;;38.28;12.30;;;;;;;1.12;100.00;95608.75;5091250;28;20521;-65
2021/11/18 03:24:34;;;;;;;32.10;12.07;;;;;;;1.10;100.00;95610.69;5096924;27;20076;-66
2021/11/18 03:27:07;;;;;;;29.27;11.63;;;;;;;1.17;100.00;95624.50;5096704;28;20047;-66
2021/11/18 03:29:34;;;;;;;20.63;9.50;;;;;;;1.06;100.00;95623.00;5090863;27;20131;-66
2021/11/18 03:32:00;;;;;;;24.67;10.27;;;;;;;0.55;100.00;95625.38;5086338;28;20043;-66
2021/11/18 03:34:29;;;;;;;36.13;14.90;;;;;;;0.33;100.00;95620.72;5092191;28;20039;-66
2021/11/18 03:36:56;;;;;;;27.08;11.02;;;;;;;0.41;100.00;95618.22;5096004;27;20039;-66
2021/11/18 03:39:25;;;;;;;30.23;12.45;;;;;;;0.44;100.00;95615.38;5094383;27;20531;-66
2021/11/18 03:41:57;;;;;;;25.33;11.30;;;;;;;0.55;100.00;95627.16;5085910;28;20464;-67
2021/11/18 03:44:25;;;;;;;25.63;11.05;;;;;;;0.51;100.00;95608.69;5069666;28;20039;-67
2021/11/18 03:46:57;;;;;;;27.77;11.63;;;;;;;0.62;100.00;95624.81;5087641;28;20040;-67
2021/11/18 03:49:27;;;;;;;28.90;13.73;;;;;;;0.59;100.00;95625.88;5089951;27;20472;-66
2021/11/18 03:51:58;;;;;;;24.25;11.40;;;;;;;0.66;100.00;95636.34;5095003;28;20139;-66
2021/11/18 03:54:29;;;;;;;27.45;12.00;;;;;;;0.56;100.00;95621.09;5091406;27;20035;-66
2021/11/18 03:57:00;;;;;;;30.17;12.20;;;;;;;0.66;100.00;95636.34;5090512;28;21002;-66
2021/11/18 03:59:31;;;;;;;27.40;12.18;;;;;;;0.73;100.00;95637.38;5091585;28;20067;-66
2021/11/18 04:02:04;;;;;;;33.58;12.80;;;;;;;0.69;100.00;95633.50;5085001;28;20040;-66
2021/11/18 04:04:38;;;;;;;28.38;13.35;;;;;;;0.75;100.00;95645.72;5093933;27;20094;-66
2021/11/18 04:07:05;;;;;;;35.97;13.23;;;;;;;0.78;100.00;95639.50;5089600;28;20075;-66
2021/11/18 04:09:33;;;;;;;32.85;13.43;;;;;;;0.79;100.00;95631.63;5093183;27;20051;-65
2021/11/18 04:12:00;;;;;;;35.85;15.02;;;;;;;0.86;100.00;95632.63;5086796;28;20053;-66
2021/11/18 04:14:34;;;;;;;38.72;14.20;;;;;;;0.91;100.00;95630.44;5085701;27;20047;-66
2021/11/18 04:17:06;;;;;;;39.78;16.55;;;;;;;0.95;100.00;95628.38;5088871;28;20043;-65
2021/11/18 04:19:33;;;;;;;42.00;15.73;;;;;;;1.01;100.00;95625.22;5089549;27;20043;-66
2021/11/18 04:22:00;;;;;;;36.10;14.20;;;;;;;0.97;100.00;95628.22;5109185;27;20500;-66
2021/11/18 04:24:33;;;;;;;39.25;15.73;;;;;;;0.99;100.00;95634.00;5086378;28;20044;-66
2021/11/18 04:27:02;;;;;;;28.38;14.18;;;;;;;0.99;100.00;95626.31;5091566;28;20062;-66
2021/11/18 04:29:30;;;;;;;34.63;14.48;;;;;;;0.97;100.00;95643.63;5089869;28;20077;-66
2021/11/18 04:32:12;;;;;;;29.95;14.23;;;;;;;0.85;100.00;95637.94;5082896;28;20068;-66
2021/11/18 04:34:43;;;;;;;33.33;15.35;;;;;;;0.88;100.00;95635.88;5088368;28;20082;-66
2021/11/18 04:37:10;;;;;;;33.22;14.20;;;;;;;1.05;100.00;95638.53;5091890;27;20191;-66
2021/11/18 04:39:37;;;;;;;40.40;15.25;;;;;;;1.22;100.00;95642.78;5088939;27;20130;-66
2021/11/18 04:42:05;;;;;;;34.28;17.17;;;;;;;1.37;100.00;95634.50;5089536;28;20492;-66
2021/11/18 04:44:35;;;;;;;39.88;17.55;;;;;;;1.39;100.00;95630.03;5091786;28;20061;-66
2021/11/18 04:47:07;;;;;;;35.97;15.88;;;;;;;1.48;100.00;95631.69;5089727;28;20047;-66
2021/11/18 04:49:34;;;;;;;33.85;14.70;;;;;;;1.46;100.00;95623.31;5093254;27;20058;-66
2021/11/18 04:52:03;;;;;;;40.35;16.23;;;;;;;1.44;100.00;95628.63;5084176;28;20066;-66
2021/11/18 04:54:31;;;;;;;28.20;13.82;;;;;;;1.28;100.00;95626.78;5084537;28;20047;-67
2021/11/18 04:56:58;;;;;;;35.92;14.27;;;;;;;1.33;100.00;95624.56;5088418;28;20043;-66
2021/11/18 04:59:25;;;;;;;37.95;15.18;;;;;;;1.40;100.00;95623.94;5095686;27;20042;-66
2021/11/18 05:01:52;;;;;;;31.00;12.93;;;;;;;1.59;100.00;95628.03;5087296;28;20035;-66
2021/11/18 05:04:22;;;;;;;27.00;12.50;;;;;;;1.61;100.00;95626.91;5091374;28;20042;-66
2021/11/18 05:06:49;;;;;;;39.78;14.68;;;;;;;1.50;100.00;95629.78;5087505;27;20575;-66
2021/11/18 05:09:16;;;;;;;27.92;12.85;;;;;;;1.51;100.00;95621.91;5088248;28;20057;-66
2021/11/18 05:11:44;;;;;;;37.85;14.13;;;;;;;1.46;100.00;95631.03;5086067;28;20046;-67
2021/11/18 05:14:13;;;;;;;34.75;14.07;;;;;;;1.51;100.00;95636.50;5090718;28;20051;-67
2021/11/18 05:16:40;;;;;;;36.10;14.15;;;;;;;1.41;100.00;95631.50;5094645;28;20043;-67
2021/11/18 05:19:07;;;;;;;31.75;14.20;;;;;;;1.40;100.00;95634.22;5092439;27;20808;-67
2021/11/18 05:21:34;;;;;;;37.40;14.27;;;;;;;1.39;100.00;95627.47;5095534;28;20031;-67
2021/11/18 05:24:05;;;;;;;38.05;14.95;;;;;;;1.42;100.00;95637.44;5089711;28;20051;-68
2021/11/18 05:26:33;;;;;;;33.97;13.93;;;;;;;1.22;100.00;95622.25;5083016;28;20444;-67
2021/11/18 05:29:01;;;;;;;37.95;17.73;;;;;;;1.34;100.00;95636.44;5089736;28;20468;-67
2021/11/18 05:31:29;;;;;;;32.30;14.88;;;;;;;1.37;100.00;95640.47;5088371;28;20071;-68
2021/11/18 05:34:09;;;;;;;31.85;13.85;;;;;;;1.30;100.00;95650.53;5083422;28;20075;-67
2021/11/18 05:36:37;;;;;;;30.67;12.68;;;;;;;1.25;100.00;95647.63;5089867;28;20044;-67
2021/11/18 05:39:05;;;;;;;22.95;9.88;;;;;;;1.16;100.00;95651.09;5085567;28;20047;-66
2021/11/18 05:41:36;;;;;;;20.90;8.63;;;;;;;1.23;100.00;95649.53;5095286;28;20131;-66
2021/11/18 05:44:05;;;;;;;19.02;9.32;;;;;;;1.40;100.00;95670.16;5097874;28;20453;-65
2021/11/18 05:46:35;;;;;;;22.83;9.73;;;;;;;1.55;100.00;95665.25;5091827;28;20113;-65
2021/11/18 05:49:05;;;;;;;20.27;8.18;;;;;;;1.58;100.00;95667.50;5094155;28;20512;-65
2021/11/18 05:51:35;;;;;;;21.02;7.80;;;;;;;1.69;100.00;95673.19;5092678;28;20102;-65
2021/11/18 05:54:07;;;;;;;20.48;8.80;;;;;;;1.83;100.00;95686.38;5090165;28;20047;-65
2021/11/18 05:56:37;;;;;;;24.48;9.93;;;;;;;1.92;100.00;95685.44;5093460;28;20053;-65
2021/11/18 05:59:05;;;;;;;31.17;12.85;;;;;;;1.93;100.00;95687.06;5085409;28;20432;-65
2021/11/18 06:01:33;;;;;;;23.90;9.50;;;;;;;2.01;100.00;95689.66;5088571;27;20075;-65
2021/11/18 06:04:01;;;;;;;18.55;8.90;;;;;;;2.07;100.00;95678.75;5087450;27;20097;-66
2021/11/18 06:06:41;;;;;;;22.88;10.32;;;;;;;2.13;100.00;95674.75;5090361;27;20047;-65
2021/11/18 06:09:08;;;;;;;21.70;10.18;;;;;;;2.24;100.00;95678.78;5088553;28;20040;-66
2021/11/18 06:11:39;;;;;;;26.83;10.65;;;;;;;2.07;100.00;95683.91;5088262;27;20504;-67
2021/11/18 06:14:12;;;;;;;26.30;11.32;;;;;;;1.83;100.00;95687.19;5084477;28;20059;-67
2021/11/18 06:16:39;;;;;;;22.00;10.88;;;;;;;1.79;100.00;95677.38;5086206;28;20046;-66
2021/11/18 06:19:06;;;;;;;27.08;12.88;;;;;;;1.80;100.00;95671.28;5092194;28;20044;-66
2021/11/18 06:21:38;;;;;;;29.83;9.50;;;;;;;1.90;100.00;95693.31;5088324;27;20049;-66
2021/11/18 06:24:06;;;;;;;19.58;8.40;;;;;;;1.94;100.00;95693.81;5087301;27;20067;-66
2021/11/18 06:26:40;;;;;;;23.20;9.85;;;;;;;2.01;100.00;95697.34;5091225;27;20043;-66
2021/11/18 06:29:12;;;;;;;26.92;10.75;;;;;;;1.99;100.00;95691.56;5089087;28;20047;-66
2021/11/18 06:31:40;;;;;;;24.33;9.25;;;;;;;2.09;100.00;95687.13;5085701;28;20131;-66
2021/11/18 06:34:07;;;;;;;23.55;10.48;;;;;;;2.17;100.00;95688.09;5084442;27;20043;-66
2021/11/18 06:36:34;;;;;;;26.45;10.98;;;;;;;2.31;100.00;95699.53;5092306;27;20138;-66
2021/11/18 06:39:01;;;;;;;35.35;16.05;;;;;;;2.39;100.00;95702.91;5092121;27;20052;-65
2021/11/18 06:41:30;;;;;;;25.73;12.98;;;;;;;2.53;100.00;95703.25;5089442;28;20048;-65
2021/11/18 06:43:58;;;;;;;30.67;12.18;;;;;;;2.57;100.00;95709.69;5090382;27;20082;-66
2021/11/18 06:46:26;;;;;;;50.47;23.38;;;;;;;2.67;100.00;95715.50;5094409;28;20052;-65
2021/11/18 06:48:54;;;;;;;32.17;15.45;;;;;;;2.78;100.00;95712.59;5091727;28;20082;-66
2021/11/18 06:51:23;;;;;;;28.08;13.65;;;;;;;2.86;100.00;95715.19;5088594;28;20056;-65
2021/11/18 06:53:55;;;;;;;30.02;13.35;;;;;;;2.90;100.00;95709.69;5090668;27;20044;-66
2021/11/18 06:56:27;;;;;;;;;;;;;;;2.92;100.00;95715.47;5090453;28;20044;-65
2021/11/18 06:58:57;;;;;;;43.83;17.38;;;;;;;2.78;100.00;95707.44;5088244;27;20011;-65
2021/11/18 07:01:29;;;;;;;24.40;11.65;;;;;;;2.94;100.00;95716.16;5085575;28;20044;-65
2021/11/18 07:03:57;;;;;;;33.35;15.57;;;;;;;3.05;100.00;95723.53;5085192;28;20102;-65
2021/11/18 07:06:25;;;;;;;37.53;17.55;;;;;;;3.03;100.00;95715.97;5106302;27;20046;-65
2021/11/18 07:08:54;;;;;;;26.80;11.98;;;;;;;2.93;100.00;95710.19;5090189;27;20047;-65
2021/11/18 07:11:25;;;;;;;22.33;10.35;;;;;;;2.84;100.00;95711.94;5085902;28;20047;-66
2021/11/18 07:13:54;;;;;;;24.48;12.75;;;;;;;2.93;100.00;95714.53;5091344;27;20427;-65
2021/11/18 07:16:22;;;;;;;65.50;24.33;;;;;;;3.04;100.00;95706.47;5087346;28;20047;-65
2021/11/18 07:18:50;;;;;;;273.77;118.30;;;;;;;3.28;100.00;95722.84;5082099;28;20047;-66
2021/11/18 07:21:22;;;;;;;62.45;31.63;;;;;;;3.40;100.00;95726.69;5085428;28;20040;-66
2021/11/18 07:23:52;;;;;;;27.52;12.98;;;;;;;3.45;100.00;95724.44;5086080;28;20033;-67
2021/11/18 07:26:20;;;;;;;33.42;12.75;;;;;;;3.57;100.00;95728.28;5086734;27;20048;-67
2021/11/18 07:28:47;;;;;;;26.45;10.82;;;;;;;3.68;100.00;95714.25;5117402;27;20051;-67
2021/11/18 07:31:15;;;;;;;26.98;11.82;;;;;;;3.70;100.00;95711.50;5081062;28;20044;-67
2021/11/18 07:33:48;;;;;;;37.53;17.98;;;;;;;3.68;100.00;95723.75;5092628;27;20047;-68
2021/11/18 07:36:15;;;;;;;53.70;25.20;;;;;;;3.72;100.00;95704.41;5090606;27;20401;-67
2021/11/18 07:38:44;;;;;;;34.50;16.60;;;;;;;4.06;100.00;95721.34;5085596;27;20583;-67
2021/11/18 07:41:11;;;;;;;31.25;14.07;;;;;;;4.25;100.00;95715.78;5086184;28;20047;-67
2021/11/18 07:43:47;;;;;;;29.45;12.85;;;;;;;4.39;100.00;95711.66;5085823;27;20606;-68
2021/11/18 07:47:10;;;;;;;25.48;12.88;;;;;;;4.34;100.00;95719.94;5029325;28;20045;-68
2021/11/18 07:49:37;;;;;;;31.40;12.48;;;;;;;4.46;100.00;95704.84;5070425;28;20044;-68
2021/11/18 07:52:05;;;;;;;29.77;12.30;;;;;;;4.47;100.00;95723.72;5082308;28;20044;-66
2021/11/18 07:54:32;;;;;;;25.58;11.63;;;;;;;4.51;100.00;95719.81;5103956;27;20055;-66
2021/11/18 07:56:59;;;;;;;23.70;10.93;;;;;;;4.64;100.00;95724.41;5101569;28;20433;-66
2021/11/18 07:59:26;;;;;;;23.23;11.38;;;;;;;4.69;100.00;95738.41;5080145;28;20464;-67
2021/11/18 08:01:55;;;;;;;24.85;11.90;;;;;;;4.74;100.00;95730.16;5082652;28;20053;-65
2021/11/18 08:04:24;;;;;;;25.90;12.13;;;;;;;4.70;100.00;95729.72;5085119;27;20052;-65
2021/11/18 08:06:53;;;;;;;25.45;10.80;;;;;;;4.76;100.00;95718.69;5086169;28;20055;-65
2021/11/18 08:09:23;;;;;;;26.70;12.60;;;;;;;4.73;100.00;95728.53;5085362;28;20052;-65
2021/11/18 08:11:56;;;;;;;29.42;13.13;;;;;;;4.70;100.00;95727.13;5088137;27;20066;-65
2021/11/18 08:14:24;;;;;;;31.60;14.85;;;;;;;4.67;100.00;95737.78;5084158;28;20035;-65
2021/11/18 08:16:53;;;;;;;29.05;12.88;;;;;;;4.74;100.00;95736.13;5088771;28;20040;-65
2021/11/18 08:19:20;;;;;;;31.00;13.25;;;;;;;4.75;100.00;95722.25;5083675;28;20536;-66
2021/11/18 08:21:51;;;;;;;27.20;13.48;;;;;;;4.90;100.00;95735.22;5089443;27;20463;-65
2021/11/18 08:24:23;;;;;;;33.63;16.00;;;;;;;4.95;100.00;95742.41;5086066;27;20094;-66
2021/11/18 08:26:52;;;;;;;32.63;14.30;;;;;;;4.93;100.00;95744.38;5079420;28;20141;-65
2021/11/18 08:29:22;;;;;;;34.38;13.65;;;;;;;4.85;100.00;95742.66;5071256;28;20074;-66
2021/11/18 08:31:52;;;;;;;39.10;15.93;;;;;;;4.86;99.95;95743.44;5068863;28;20044;-66
2021/11/18 08:34:26;;;;;;;48.35;19.92;;;;;;;4.84;99.90;95746.19;5068830;28;20066;-66
2021/11/18 08:36:59;;;;;;;38.65;17.52;;;;;;;4.85;99.65;95752.97;5072734;28;20059;-66
2021/11/18 08:39:27;;;;;;;39.83;16.67;;;;;;;4.93;98.90;95754.69;5069595;28;20489;-66
2021/11/18 08:41:58;;;;;;;34.30;15.00;;;;;;;4.98;98.50;95757.56;5070640;28;20123;-67
2021/11/18 08:44:31;;;;;;;34.58;15.13;;;;;;;4.97;98.16;95755.97;5069547;28;20047;-66
2021/11/18 08:46:58;;;;;;;42.20;18.92;;;;;;;4.95;98.94;95757.91;5072935;28;20048;-67
2021/11/18 08:49:28;;;;;;;40.45;18.23;;;;;;;4.94;98.35;95746.00;5073623;28;20062;-66
2021/11/18 08:51:56;;;;;;;36.58;16.50;;;;;;;5.05;98.61;95755.91;5074698;28;20446;-67
2021/11/18 08:54:28;;;;;;;41.58;15.50;;;;;;;4.81;98.32;95715.59;5073766;28;20044;-66
2021/11/18 08:56:57;;;;;;;32.92;16.45;;;;;;;5.11;98.59;95762.97;5072886;28;20504;-66
2021/11/18 08:59:27;;;;;;;33.10;16.95;;;;;;;5.21;98.48;95764.50;5070228;28;20640;-66
2021/11/18 09:02:15;;;;;;;29.97;14.17;;;;;;;5.13;97.77;95758.44;5062674;28;20048;-66
2021/11/18 09:04:43;;;;;;;28.10;13.95;;;;;;;5.27;97.48;95771.53;5066512;28;20046;-67
2021/11/18 09:07:09;;;;;;;31.48;15.65;;;;;;;5.33;97.35;95766.50;5068558;28;20059;-67
2021/11/18 09:09:36;;;;;;;34.20;15.43;;;;;;;5.25;96.96;95763.19;5071454;28;20051;-67
2021/11/18 09:12:06;;;;;;;30.30;15.68;;;;;;;5.39;96.75;95775.31;5066081;28;20080;-67
2021/11/18 09:14:34;;;;;;;34.35;15.20;;;;;;;5.36;96.62;95767.91;5075409;28;20044;-66
2021/11/18 09:17:02;;;;;;;36.00;15.13;;;;;;;5.30;97.71;95776.38;5074348;28;20090;-66
2021/11/18 09:19:36;;;;;;;28.60;14.43;;;;;;;5.28;98.12;95780.91;5068834;28;20043;-66
2021/11/18 09:22:07;;;;;;;35.47;14.25;;;;;;;5.34;97.47;95773.25;5075636;28;20050;-67
2021/11/18 09:24:45;;;;;;;32.58;16.15;;;;;;;5.32;98.01;95780.38;5075322;28;20104;-67
2021/11/18 09:27:14;;;;;;;31.13;14.93;;;;;;;5.30;97.72;95772.00;5092225;27;20055;-67
2021/11/18 09:29:45;;;;;;;32.85;15.75;;;;;;;5.41;98.30;95767.41;5077692;28;20063;-67
2021/11/18 09:32:41;;;;;;;29.65;15.18;;;;;;;5.52;97.76;95770.34;5081559;28;20043;-68
2021/11/18 09:35:19;;;;;;;29.75;14.48;;;;;;;5.60;96.57;95760.91;5082828;28;20044;-66
2021/11/18 09:37:46;;;;;;;30.92;16.48;;;;;;;5.63;96.28;95765.75;5090748;28;20077;-67
2021/11/18 09:40:18;;;;;;;32.35;14.68;;;;;;;5.68;95.81;95763.44;5121406;27;20059;-67
2021/11/18 09:43:22;;;;;;;37.58;13.18;;;;;;;5.71;95.44;95763.09;5081036;28;20055;-67
2021/11/18 09:46:29;;;;;;;32.13;14.88;;;;;;;5.73;95.24;95761.91;5082141;28;20048;-66
2021/11/18 09:48:56;;;;;;;38.63;18.25;;;;;;;5.78;95.34;95761.41;5089255;28;20051;-69
2021/11/18 09:51:53;;;;;;;28.92;15.65;;;;;;;5.76;95.27;95771.09;5094904;28;20116;-67
2021/11/18 09:54:43;;;;;;;40.10;17.90;;;;;;;5.86;95.01;95763.88;5091329;28;20075;-68
2021/11/18 09:57:19;;;;;;;35.97;15.27;;;;;;;5.92;94.78;95765.75;5087760;28;20062;-68
2021/11/18 10:00:08;;;;;;;25.67;13.15;;;;;;;5.81;94.94;95753.25;5087342;28;20553;-67
2021/11/18 10:02:45;;;;;;;33.70;14.90;;;;;;;5.68;95.86;95759.06;5106430;28;20051;-67
2021/11/18 10:05:19;;;;;;;29.90;14.88;;;;;;;5.71;95.89;95748.38;5085674;28;20541;-68
2021/11/18 10:07:53;;;;;;;37.13;17.77;;;;;;;5.82;95.75;95749.72;5087953;28;20554;-67
2021/11/18 10:10:31;;;;;;;27.98;12.75;;;;;;;5.92;95.89;95745.09;5083852;28;20040;-67
2021/11/18 10:13:20;;;;;;;34.47;15.48;;;;;;;5.98;95.70;95740.19;5080357;28;20508;-67
2021/11/18 10:15:55;;;;;;;33.65;14.10;;;;;;;6.07;95.45;95736.53;5076446;28;20040;-67
2021/11/18 10:18:27;;;;;;;31.20;14.50;;;;;;;6.29;95.13;95738.19;5082725;28;20066;-67
2021/11/18 10:21:00;;;;;;;35.15;16.70;;;;;;;6.44;93.98;95734.75;5081705;28;20033;-67
2021/11/18 10:23:28;;;;;;;27.08;13.55;;;;;;;6.40;94.12;95730.94;5098106;28;20069;-68
2021/11/18 10:26:02;;;;;;;32.72;14.98;;;;;;;6.46;93.66;95735.38;5102067;28;20055;-67
2021/11/18 10:29:01;;;;;;;27.77;14.18;;;;;;;6.42;94.00;95728.97;5084112;28;20422;-66
2021/11/18 10:31:51;;;;;;;67.13;33.05;;;;;;;6.62;93.61;95719.63;5104877;27;20124;-68
2021/11/18 10:34:25;;;;;;;37.20;17.85;;;;;;;6.76;93.51;95714.59;5106935;27;20092;-67
2021/11/18 10:37:22;;;;;;;35.22;16.95;;;;;;;6.84;92.98;95717.03;5107550;27;20047;-68
2021/11/18 10:39:52;;;;;;;37.90;16.27;;;;;;;6.89;92.56;95715.50;5110521;27;20501;-67
2021/11/18 10:42:21;;;;;;;32.30;15.80;;;;;;;6.83;92.13;95715.44;5095537;27;20505;-67
2021/11/18 10:45:13;;;;;;;32.38;16.23;;;;;;;6.93;92.83;95726.28;5106797;27;20047;-67
2021/11/18 10:47:52;;;;;;;39.65;18.95;;;;;;;6.98;92.41;95713.56;5109210;27;20556;-67
2021/11/18 10:50:39;;;;;;;35.97;16.30;;;;;;;7.04;91.86;95709.44;5100123;27;20109;-67
2021/11/18 10:53:14;;;;;;;32.88;16.15;;;;;;;7.06;91.63;95710.88;5105679;27;20439;-67
2021/11/18 10:55:47;;;;;;;36.63;17.80;;;;;;;7.17;91.86;95706.19;5103150;27;20545;-67
2021/11/18 10:58:37;;;;;;;35.95;16.65;;;;;;;7.33;91.23;95711.06;5106151;27;20074;-67
2021/11/18 11:01:13;;;;;;;37.83;18.27;;;;;;;7.24;91.86;95696.66;5086515;27;20067;-67
2021/11/18 11:03:45;;;;;;;34.95;15.57;;;;;;;7.52;90.79;95703.63;5106874;27;20044;-67
2021/11/18 11:06:12;;;;;;;27.98;15.07;;;;;;;7.73;90.97;95695.75;5100063;27;20051;-67
2021/11/18 11:08:45;;;;;;;33.85;16.48;;;;;;;8.15;90.04;95678.38;5103192;27;20113;-67
2021/11/18 11:11:21;;;;;;;30.38;14.57;;;;;;;8.60;86.75;95691.69;5107669;27;20480;-67
2021/11/18 11:13:54;;;;;;;34.53;14.05;;;;;;;8.88;85.61;95693.34;5104221;27;20122;-67
2021/11/18 11:16:53;;;;;;;29.98;16.83;;;;;;;9.12;84.89;95688.56;5092991;27;20039;-67
2021/11/18 11:19:23;;;;;;;34.50;16.88;;;;;;;9.74;81.30;95687.28;5090425;28;20064;-67
2021/11/18 11:22:13;;;;;;;35.88;15.50;;;;;;;10.52;79.54;95683.78;5105816;28;20683;-67
2021/11/18 11:25:14;;;;;;;30.90;15.25;;;;;;;11.29;74.73;95682.84;5110626;27;20109;-67
2021/11/18 11:28:04;;;;;;;30.30;15.32;;;;;;;11.93;71.97;95678.22;5111238;27;20062;-66
2021/11/18 11:30:33;;;;;;;35.75;16.38;;;;;;;12.27;69.30;95678.63;5087294;28;20039;-67
2021/11/18 11:33:06;;;;;;;31.20;14.50;;;;;;;12.57;69.58;95677.84;5105996;27;20053;-67
2021/11/18 11:35:48;;;;;;;30.15;14.95;;;;;;;12.61;66.94;95668.53;5069212;28;20063;-67
2021/11/18 11:38:49;;;;;;;30.33;16.88;;;;;;;12.14;67.10;95665.75;5105998;27;20103;-67
2021/11/18 11:41:34;;;;;;;25.85;13.32;;;;;;;11.66;68.29;95673.25;5108899;27;20354;-67